sensor_id;sensor_type;location;lat;lon;timestamp;temperature;humidity
15705;DHT22;7952;48.396;12.806;2023-06-14T00:00:19;16.40;35.10
15705;DHT22;7952;48.396;12.806;2023-06-14T00:02:45;16.30;35.10
15705;DHT22;7952;48.396;12.806;2023-06-14T00:05:11;16.30;35.10
15705;DHT22;7952;48.396;12.806;2023-06-14T00:07:42;16.30;35.20
15705;DHT22;7952;48.396;12.806;2023-06-14T00:10:13;16.20;35.20
15705;DHT22;7952;48.396;12.806;2023-06-14T00:12:39;16.20;35.30
15705;DHT22;7952;48.396;12.806;2023-06-14T00:15:06;16.10;35.30
15705;DHT22;7952;48.396;12.806;2023-06-14T00:17:31;16.10;35.50
15705;DHT22;7952;48.396;12.806;2023-06-14T00:19:58;16.00;35.40
15705;DHT22;7952;48.396;12.806;2023-06-14T00:22:24;16.00;35.50
15705;DHT22;7952;48.396;12.806;2023-06-14T00:24:51;16.00;35.50
15705;DHT22;7952;48.396;12.806;2023-06-14T00:27:17;15.90;35.50
15705;DHT22;7952;48.396;12.806;2023-06-14T00:29:42;15.90;35.50
15705;DHT22;7952;48.396;12.806;2023-06-14T00:32:08;15.90;35.50
15705;DHT22;7952;48.396;12.806;2023-06-14T00:34:34;15.80;35.50
15705;DHT22;7952;48.396;12.806;2023-06-14T00:37:00;15.80;35.50
15705;DHT22;7952;48.396;12.806;2023-06-14T00:39:26;15.70;35.50
15705;DHT22;7952;48.396;12.806;2023-06-14T00:41:52;15.70;35.60
15705;DHT22;7952;48.396;12.806;2023-06-14T00:44:21;15.70;35.60
15705;DHT22;7952;48.396;12.806;2023-06-14T00:46:47;15.70;35.60
15705;DHT22;7952;48.396;12.806;2023-06-14T00:49:17;15.70;35.70
15705;DHT22;7952;48.396;12.806;2023-06-14T00:51:43;15.60;35.70
15705;DHT22;7952;48.396;12.806;2023-06-14T00:54:10;15.60;35.70
15705;DHT22;7952;48.396;12.806;2023-06-14T00:56:36;15.60;36.40
15705;DHT22;7952;48.396;12.806;2023-06-14T00:59:03;15.60;36.40
15705;DHT22;7952;48.396;12.806;2023-06-14T01:01:30;15.60;35.80
15705;DHT22;7952;48.396;12.806;2023-06-14T01:03:58;15.50;35.80
15705;DHT22;7952;48.396;12.806;2023-06-14T01:06:35;15.50;35.80
15705;DHT22;7952;48.396;12.806;2023-06-14T01:12:00;15.50;35.90
15705;DHT22;7952;48.396;12.806;2023-06-14T01:14:29;15.40;35.80
15705;DHT22;7952;48.396;12.806;2023-06-14T01:16:57;15.40;35.90
15705;DHT22;7952;48.396;12.806;2023-06-14T01:19:25;15.40;36.00
15705;DHT22;7952;48.396;12.806;2023-06-14T01:21:51;15.40;36.00
15705;DHT22;7952;48.396;12.806;2023-06-14T01:24:18;15.30;36.00
15705;DHT22;7952;48.396;12.806;2023-06-14T01:26:53;15.30;36.00
15705;DHT22;7952;48.396;12.806;2023-06-14T01:29:23;15.30;36.00
15705;DHT22;7952;48.396;12.806;2023-06-14T01:31:50;15.20;36.00
15705;DHT22;7952;48.396;12.806;2023-06-14T01:34:16;15.20;36.10
15705;DHT22;7952;48.396;12.806;2023-06-14T01:36:44;15.20;36.10
15705;DHT22;7952;48.396;12.806;2023-06-14T01:39:14;15.20;36.20
15705;DHT22;7952;48.396;12.806;2023-06-14T01:41:40;15.10;36.10
15705;DHT22;7952;48.396;12.806;2023-06-14T01:44:06;15.10;36.20
15705;DHT22;7952;48.396;12.806;2023-06-14T01:46:32;15.10;36.20
15705;DHT22;7952;48.396;12.806;2023-06-14T01:48:59;15.00;36.20
15705;DHT22;7952;48.396;12.806;2023-06-14T01:51:25;15.00;36.30
15705;DHT22;7952;48.396;12.806;2023-06-14T01:53:51;14.90;36.20
15705;DHT22;7952;48.396;12.806;2023-06-14T01:56:17;14.90;36.30
15705;DHT22;7952;48.396;12.806;2023-06-14T01:58:43;14.90;36.30
15705;DHT22;7952;48.396;12.806;2023-06-14T02:01:08;14.90;36.40
15705;DHT22;7952;48.396;12.806;2023-06-14T02:03:34;14.80;36.40
15705;DHT22;7952;48.396;12.806;2023-06-14T02:06:00;14.80;36.40
15705;DHT22;7952;48.396;12.806;2023-06-14T02:08:26;14.80;36.50
15705;DHT22;7952;48.396;12.806;2023-06-14T02:10:52;14.70;36.40
15705;DHT22;7952;48.396;12.806;2023-06-14T02:13:17;14.70;36.50
15705;DHT22;7952;48.396;12.806;2023-06-14T02:15:43;14.70;36.50
15705;DHT22;7952;48.396;12.806;2023-06-14T02:18:10;14.60;37.10
15705;DHT22;7952;48.396;12.806;2023-06-14T02:20:36;14.60;36.60
15705;DHT22;7952;48.396;12.806;2023-06-14T02:23:02;14.60;36.60
15705;DHT22;7952;48.396;12.806;2023-06-14T02:25:28;14.50;36.60
15705;DHT22;7952;48.396;12.806;2023-06-14T02:27:54;14.40;36.50
15705;DHT22;7952;48.396;12.806;2023-06-14T02:30:21;14.40;36.70
15705;DHT22;7952;48.396;12.806;2023-06-14T02:32:47;14.40;36.70
15705;DHT22;7952;48.396;12.806;2023-06-14T02:35:14;14.40;36.80
15705;DHT22;7952;48.396;12.806;2023-06-14T02:37:40;14.30;36.70
15705;DHT22;7952;48.396;12.806;2023-06-14T02:40:06;14.30;36.80
15705;DHT22;7952;48.396;12.806;2023-06-14T02:42:34;14.30;36.80
15705;DHT22;7952;48.396;12.806;2023-06-14T02:45:00;14.20;36.80
15705;DHT22;7952;48.396;12.806;2023-06-14T02:47:27;14.20;36.80
15705;DHT22;7952;48.396;12.806;2023-06-14T02:49:53;14.20;36.90
15705;DHT22;7952;48.396;12.806;2023-06-14T02:52:19;14.20;36.90
15705;DHT22;7952;48.396;12.806;2023-06-14T02:54:46;14.20;36.90
15705;DHT22;7952;48.396;12.806;2023-06-14T02:57:12;14.20;36.90
15705;DHT22;7952;48.396;12.806;2023-06-14T02:59:38;14.30;37.00
15705;DHT22;7952;48.396;12.806;2023-06-14T03:02:04;14.20;36.90
15705;DHT22;7952;48.396;12.806;2023-06-14T03:04:30;14.20;36.90
15705;DHT22;7952;48.396;12.806;2023-06-14T03:07:00;14.20;36.90
15705;DHT22;7952;48.396;12.806;2023-06-14T03:09:28;14.20;36.90
15705;DHT22;7952;48.396;12.806;2023-06-14T03:11:54;14.20;37.00
15705;DHT22;7952;48.396;12.806;2023-06-14T03:14:20;14.20;37.00
15705;DHT22;7952;48.396;12.806;2023-06-14T03:16:46;14.20;37.10
15705;DHT22;7952;48.396;12.806;2023-06-14T03:19:12;14.10;37.00
15705;DHT22;7952;48.396;12.806;2023-06-14T03:21:38;14.20;37.10
15705;DHT22;7952;48.396;12.806;2023-06-14T03:24:08;14.20;37.10
15705;DHT22;7952;48.396;12.806;2023-06-14T03:26:34;14.30;37.20
15705;DHT22;7952;48.396;12.806;2023-06-14T03:29:02;14.40;37.20
15705;DHT22;7952;48.396;12.806;2023-06-14T03:31:29;14.50;37.30
15705;DHT22;7952;48.396;12.806;2023-06-14T03:33:58;14.60;37.30
15705;DHT22;7952;48.396;12.806;2023-06-14T03:36:24;14.70;37.30
15705;DHT22;7952;48.396;12.806;2023-06-14T03:38:50;14.90;37.30
15705;DHT22;7952;48.396;12.806;2023-06-14T03:41:16;15.10;37.30
15705;DHT22;7952;48.396;12.806;2023-06-14T03:43:44;15.30;37.20
15705;DHT22;7952;48.396;12.806;2023-06-14T03:46:10;15.50;37.10
15705;DHT22;7952;48.396;12.806;2023-06-14T03:48:36;15.80;37.20
15705;DHT22;7952;48.396;12.806;2023-06-14T03:51:01;16.00;37.10
15705;DHT22;7952;48.396;12.806;2023-06-14T03:53:27;16.20;37.00
15705;DHT22;7952;48.396;12.806;2023-06-14T03:55:55;16.40;36.90
15705;DHT22;7952;48.396;12.806;2023-06-14T03:58:21;16.70;36.90
15705;DHT22;7952;48.396;12.806;2023-06-14T04:00:47;16.90;36.90
15705;DHT22;7952;48.396;12.806;2023-06-14T04:03:13;17.20;36.90
15705;DHT22;7952;48.396;12.806;2023-06-14T04:05:41;17.50;36.80
15705;DHT22;7952;48.396;12.806;2023-06-14T04:08:08;17.90;36.90
15705;DHT22;7952;48.396;12.806;2023-06-14T04:10:40;18.10;36.70
15705;DHT22;7952;48.396;12.806;2023-06-14T04:13:06;18.30;36.60
15705;DHT22;7952;48.396;12.806;2023-06-14T04:15:32;18.70;36.70
15705;DHT22;7952;48.396;12.806;2023-06-14T04:17:59;18.90;36.60
15705;DHT22;7952;48.396;12.806;2023-06-14T04:20:24;19.10;36.50
15705;DHT22;7952;48.396;12.806;2023-06-14T04:22:51;19.40;36.50
15705;DHT22;7952;48.396;12.806;2023-06-14T04:25:18;19.70;36.50
15705;DHT22;7952;48.396;12.806;2023-06-14T04:27:44;20.10;36.50
15705;DHT22;7952;48.396;12.806;2023-06-14T04:30:10;20.50;36.50
15705;DHT22;7952;48.396;12.806;2023-06-14T04:32:36;20.80;36.30
15705;DHT22;7952;48.396;12.806;2023-06-14T04:35:06;21.20;36.40
15705;DHT22;7952;48.396;12.806;2023-06-14T04:37:32;21.50;36.10
15705;DHT22;7952;48.396;12.806;2023-06-14T04:39:58;21.90;36.20
15705;DHT22;7952;48.396;12.806;2023-06-14T04:42:25;22.20;36.10
15705;DHT22;7952;48.396;12.806;2023-06-14T04:44:55;22.50;36.00
15705;DHT22;7952;48.396;12.806;2023-06-14T04:47:21;22.70;36.00
15705;DHT22;7952;48.396;12.806;2023-06-14T04:49:47;22.90;36.00
15705;DHT22;7952;48.396;12.806;2023-06-14T04:52:13;23.10;36.00
15705;DHT22;7952;48.396;12.806;2023-06-14T04:54:39;23.30;36.10
15705;DHT22;7952;48.396;12.806;2023-06-14T04:57:09;23.50;36.00
15705;DHT22;7952;48.396;12.806;2023-06-14T04:59:45;23.80;36.00
15705;DHT22;7952;48.396;12.806;2023-06-14T05:02:11;24.10;36.00
15705;DHT22;7952;48.396;12.806;2023-06-14T05:04:38;24.30;35.90
15705;DHT22;7952;48.396;12.806;2023-06-14T05:07:09;24.50;35.80
15705;DHT22;7952;48.396;12.806;2023-06-14T05:09:36;24.60;35.70
15705;DHT22;7952;48.396;12.806;2023-06-14T05:12:02;24.90;35.20
15705;DHT22;7952;48.396;12.806;2023-06-14T05:14:28;24.90;35.70
15705;DHT22;7952;48.396;12.806;2023-06-14T05:16:54;25.00;35.60
15705;DHT22;7952;48.396;12.806;2023-06-14T05:19:20;25.10;35.50
15705;DHT22;7952;48.396;12.806;2023-06-14T05:21:47;25.20;35.40
15705;DHT22;7952;48.396;12.806;2023-06-14T05:24:13;25.20;35.40
15705;DHT22;7952;48.396;12.806;2023-06-14T05:26:39;25.20;35.40
15705;DHT22;7952;48.396;12.806;2023-06-14T05:29:08;25.30;35.40
15705;DHT22;7952;48.396;12.806;2023-06-14T05:31:34;25.30;36.00
15705;DHT22;7952;48.396;12.806;2023-06-14T05:34:00;25.40;35.40
15705;DHT22;7952;48.396;12.806;2023-06-14T05:36:25;25.50;35.30
15705;DHT22;7952;48.396;12.806;2023-06-14T05:38:53;25.60;35.40
15705;DHT22;7952;48.396;12.806;2023-06-14T05:41:26;25.70;35.40
15705;DHT22;7952;48.396;12.806;2023-06-14T05:43:53;25.90;35.40
15705;DHT22;7952;48.396;12.806;2023-06-14T05:46:19;26.10;35.30
15705;DHT22;7952;48.396;12.806;2023-06-14T05:48:48;26.40;35.20
15705;DHT22;7952;48.396;12.806;2023-06-14T05:51:14;26.70;35.00
15705;DHT22;7952;48.396;12.806;2023-06-14T05:53:47;26.90;34.70
15705;DHT22;7952;48.396;12.806;2023-06-14T05:56:13;27.10;34.70
15705;DHT22;7952;48.396;12.806;2023-06-14T05:58:39;27.30;34.50
15705;DHT22;7952;48.396;12.806;2023-06-14T06:01:05;27.40;34.40
15705;DHT22;7952;48.396;12.806;2023-06-14T06:03:31;27.40;34.40
15705;DHT22;7952;48.396;12.806;2023-06-14T06:05:58;27.60;34.50
15705;DHT22;7952;48.396;12.806;2023-06-14T06:08:24;27.70;34.40
15705;DHT22;7952;48.396;12.806;2023-06-14T06:10:50;27.90;34.40
15705;DHT22;7952;48.396;12.806;2023-06-14T06:13:16;28.20;34.30
15705;DHT22;7952;48.396;12.806;2023-06-14T06:15:41;28.30;34.00
15705;DHT22;7952;48.396;12.806;2023-06-14T06:18:07;28.50;34.70
15705;DHT22;7952;48.396;12.806;2023-06-14T06:20:33;28.60;33.90
15705;DHT22;7952;48.396;12.806;2023-06-14T06:22:59;28.70;33.80
15705;DHT22;7952;48.396;12.806;2023-06-14T06:25:26;28.70;33.80
15705;DHT22;7952;48.396;12.806;2023-06-14T06:27:57;28.90;33.90
15705;DHT22;7952;48.396;12.806;2023-06-14T06:30:24;29.10;33.70
15705;DHT22;7952;48.396;12.806;2023-06-14T06:32:50;29.30;33.60
15705;DHT22;7952;48.396;12.806;2023-06-14T06:35:16;29.40;33.40
15705;DHT22;7952;48.396;12.806;2023-06-14T06:37:42;29.50;33.20
15705;DHT22;7952;48.396;12.806;2023-06-14T06:40:09;29.40;32.50
15705;DHT22;7952;48.396;12.806;2023-06-14T06:42:35;29.20;32.50
15705;DHT22;7952;48.396;12.806;2023-06-14T06:45:01;28.90;32.60
15705;DHT22;7952;48.396;12.806;2023-06-14T06:47:27;28.70;32.70
15705;DHT22;7952;48.396;12.806;2023-06-14T06:49:53;28.50;32.70
15705;DHT22;7952;48.396;12.806;2023-06-14T06:52:18;28.30;32.80
15705;DHT22;7952;48.396;12.806;2023-06-14T06:54:44;28.20;32.90
15705;DHT22;7952;48.396;12.806;2023-06-14T06:57:10;28.20;32.90
15705;DHT22;7952;48.396;12.806;2023-06-14T06:59:36;28.20;32.70
15705;DHT22;7952;48.396;12.806;2023-06-14T07:02:02;28.20;32.40
15705;DHT22;7952;48.396;12.806;2023-06-14T07:04:28;28.00;32.40
15705;DHT22;7952;48.396;12.806;2023-06-14T07:06:54;27.90;32.50
15705;DHT22;7952;48.396;12.806;2023-06-14T07:09:20;27.80;32.50
15705;DHT22;7952;48.396;12.806;2023-06-14T07:11:47;27.70;32.50
15705;DHT22;7952;48.396;12.806;2023-06-14T07:14:13;27.70;32.10
15705;DHT22;7952;48.396;12.806;2023-06-14T07:16:39;27.60;32.20
15705;DHT22;7952;48.396;12.806;2023-06-14T07:19:05;27.50;32.40
15705;DHT22;7952;48.396;12.806;2023-06-14T07:21:31;27.50;32.40
15705;DHT22;7952;48.396;12.806;2023-06-14T07:23:56;27.40;32.30
15705;DHT22;7952;48.396;12.806;2023-06-14T07:26:23;27.40;32.30
15705;DHT22;7952;48.396;12.806;2023-06-14T07:28:49;27.30;32.30
15705;DHT22;7952;48.396;12.806;2023-06-14T07:31:15;27.20;32.30
15705;DHT22;7952;48.396;12.806;2023-06-14T07:33:42;27.20;32.50
15705;DHT22;7952;48.396;12.806;2023-06-14T07:36:08;27.20;32.50
15705;DHT22;7952;48.396;12.806;2023-06-14T07:38:33;27.20;32.30
15705;DHT22;7952;48.396;12.806;2023-06-14T07:41:00;27.20;32.40
15705;DHT22;7952;48.396;12.806;2023-06-14T07:43:26;27.10;32.40
15705;DHT22;7952;48.396;12.806;2023-06-14T07:45:52;27.00;32.40
15705;DHT22;7952;48.396;12.806;2023-06-14T07:48:18;26.90;32.50
15705;DHT22;7952;48.396;12.806;2023-06-14T07:50:44;26.80;32.60
15705;DHT22;7952;48.396;12.806;2023-06-14T07:53:10;26.80;32.60
15705;DHT22;7952;48.396;12.806;2023-06-14T07:55:36;26.60;32.60
15705;DHT22;7952;48.396;12.806;2023-06-14T07:58:06;26.40;32.70
15705;DHT22;7952;48.396;12.806;2023-06-14T08:00:32;26.30;33.00
15705;DHT22;7952;48.396;12.806;2023-06-14T08:02:58;26.20;33.10
15705;DHT22;7952;48.396;12.806;2023-06-14T08:05:28;26.10;33.20
15705;DHT22;7952;48.396;12.806;2023-06-14T08:07:54;26.10;33.30
15705;DHT22;7952;48.396;12.806;2023-06-14T08:10:21;26.00;33.20
15705;DHT22;7952;48.396;12.806;2023-06-14T08:12:47;25.90;33.30
15705;DHT22;7952;48.396;12.806;2023-06-14T08:15:17;25.80;33.40
15705;DHT22;7952;48.396;12.806;2023-06-14T08:17:43;25.70;33.50
15705;DHT22;7952;48.396;12.806;2023-06-14T08:20:09;25.60;33.60
15705;DHT22;7952;48.396;12.806;2023-06-14T08:22:36;25.50;33.80
15705;DHT22;7952;48.396;12.806;2023-06-14T08:25:03;25.40;33.90
15705;DHT22;7952;48.396;12.806;2023-06-14T08:27:29;25.30;33.90
15705;DHT22;7952;48.396;12.806;2023-06-14T08:29:55;25.20;34.10
15705;DHT22;7952;48.396;12.806;2023-06-14T08:32:22;25.10;34.20
15705;DHT22;7952;48.396;12.806;2023-06-14T08:34:47;25.00;34.50
15705;DHT22;7952;48.396;12.806;2023-06-14T08:37:13;24.90;34.60
15705;DHT22;7952;48.396;12.806;2023-06-14T08:39:39;24.80;34.70
15705;DHT22;7952;48.396;12.806;2023-06-14T08:42:05;24.80;34.90
15705;DHT22;7952;48.396;12.806;2023-06-14T08:44:33;24.70;34.90
15705;DHT22;7952;48.396;12.806;2023-06-14T08:46:59;24.70;35.00
15705;DHT22;7952;48.396;12.806;2023-06-14T08:49:26;24.70;35.00
15705;DHT22;7952;48.396;12.806;2023-06-14T08:51:59;24.70;35.20
15705;DHT22;7952;48.396;12.806;2023-06-14T08:54:29;24.70;35.20
15705;DHT22;7952;48.396;12.806;2023-06-14T08:57:02;24.70;35.10
15705;DHT22;7952;48.396;12.806;2023-06-14T08:59:28;24.70;35.20
15705;DHT22;7952;48.396;12.806;2023-06-14T09:01:54;24.70;35.30
15705;DHT22;7952;48.396;12.806;2023-06-14T09:04:21;24.70;35.30
15705;DHT22;7952;48.396;12.806;2023-06-14T09:06:55;24.60;35.10
15705;DHT22;7952;48.396;12.806;2023-06-14T09:09:22;24.60;35.30
15705;DHT22;7952;48.396;12.806;2023-06-14T09:11:55;24.60;35.30
15705;DHT22;7952;48.396;12.806;2023-06-14T09:14:23;24.60;35.30
15705;DHT22;7952;48.396;12.806;2023-06-14T09:16:54;24.70;35.50
15705;DHT22;7952;48.396;12.806;2023-06-14T09:19:26;24.70;35.40
15705;DHT22;7952;48.396;12.806;2023-06-14T09:21:52;24.70;35.40
15705;DHT22;7952;48.396;12.806;2023-06-14T09:24:19;24.70;35.50
15705;DHT22;7952;48.396;12.806;2023-06-14T09:26:48;24.70;35.40
15705;DHT22;7952;48.396;12.806;2023-06-14T09:29:13;24.70;35.40
15705;DHT22;7952;48.396;12.806;2023-06-14T09:31:42;24.70;35.50
15705;DHT22;7952;48.396;12.806;2023-06-14T09:34:09;24.80;35.60
15705;DHT22;7952;48.396;12.806;2023-06-14T09:36:34;24.90;35.50
15705;DHT22;7952;48.396;12.806;2023-06-14T09:39:02;25.00;35.30
15705;DHT22;7952;48.396;12.806;2023-06-14T09:41:38;25.00;35.30
15705;DHT22;7952;48.396;12.806;2023-06-14T09:44:05;25.00;35.30
15705;DHT22;7952;48.396;12.806;2023-06-14T09:46:32;24.90;35.30
15705;DHT22;7952;48.396;12.806;2023-06-14T09:48:59;25.00;35.30
15705;DHT22;7952;48.396;12.806;2023-06-14T09:51:25;24.90;35.30
15705;DHT22;7952;48.396;12.806;2023-06-14T09:53:52;25.00;35.30
15705;DHT22;7952;48.396;12.806;2023-06-14T09:56:27;25.00;35.20
15705;DHT22;7952;48.396;12.806;2023-06-14T09:58:56;25.00;35.20
15705;DHT22;7952;48.396;12.806;2023-06-14T10:01:26;25.00;35.10
15705;DHT22;7952;48.396;12.806;2023-06-14T10:04:03;25.00;35.00
15705;DHT22;7952;48.396;12.806;2023-06-14T10:06:29;25.10;35.10
15705;DHT22;7952;48.396;12.806;2023-06-14T10:09:00;25.00;34.90
15705;DHT22;7952;48.396;12.806;2023-06-14T10:11:27;25.00;35.00
15705;DHT22;7952;48.396;12.806;2023-06-14T10:13:57;25.00;35.10
15705;DHT22;7952;48.396;12.806;2023-06-14T10:16:24;25.00;35.00
15705;DHT22;7952;48.396;12.806;2023-06-14T10:19:50;25.10;35.20
15705;DHT22;7952;48.396;12.806;2023-06-14T10:22:30;25.20;34.90
15705;DHT22;7952;48.396;12.806;2023-06-14T10:24:57;25.20;34.80
15705;DHT22;7952;48.396;12.806;2023-06-14T10:27:23;25.20;34.80
15705;DHT22;7952;48.396;12.806;2023-06-14T10:30:01;25.20;34.80
15705;DHT22;7952;48.396;12.806;2023-06-14T10:32:27;25.20;34.80
15705;DHT22;7952;48.396;12.806;2023-06-14T10:34:56;25.30;34.90
15705;DHT22;7952;48.396;12.806;2023-06-14T10:37:22;25.40;34.90
15705;DHT22;7952;48.396;12.806;2023-06-14T10:39:47;25.60;34.90
15705;DHT22;7952;48.396;12.806;2023-06-14T10:42:14;25.70;34.70
15705;DHT22;7952;48.396;12.806;2023-06-14T10:45:06;25.80;34.50
15705;DHT22;7952;48.396;12.806;2023-06-14T10:47:33;25.80;34.40
15705;DHT22;7952;48.396;12.806;2023-06-14T10:50:10;25.90;34.40
15705;DHT22;7952;48.396;12.806;2023-06-14T10:52:41;25.80;34.40
15705;DHT22;7952;48.396;12.806;2023-06-14T10:57:54;26.00;34.50
15705;DHT22;7952;48.396;12.806;2023-06-14T11:00:25;26.10;34.40
15705;DHT22;7952;48.396;12.806;2023-06-14T11:05:56;26.20;34.10
15705;DHT22;7952;48.396;12.806;2023-06-14T11:08:39;26.30;34.10
15705;DHT22;7952;48.396;12.806;2023-06-14T11:11:07;26.30;34.00
15705;DHT22;7952;48.396;12.806;2023-06-14T11:13:34;26.40;33.90
15705;DHT22;7952;48.396;12.806;2023-06-14T11:16:02;26.40;33.80
15705;DHT22;7952;48.396;12.806;2023-06-14T11:18:28;26.40;33.80
15705;DHT22;7952;48.396;12.806;2023-06-14T11:20:54;26.40;33.70
15705;DHT22;7952;48.396;12.806;2023-06-14T11:23:21;26.30;33.70
15705;DHT22;7952;48.396;12.806;2023-06-14T11:25:51;26.20;33.80
15705;DHT22;7952;48.396;12.806;2023-06-14T11:28:17;26.30;34.00
15705;DHT22;7952;48.396;12.806;2023-06-14T11:30:45;26.50;34.00
15705;DHT22;7952;48.396;12.806;2023-06-14T11:33:16;26.70;34.00
15705;DHT22;7952;48.396;12.806;2023-06-14T11:35:42;26.90;33.80
15705;DHT22;7952;48.396;12.806;2023-06-14T11:38:10;26.90;33.50
15705;DHT22;7952;48.396;12.806;2023-06-14T11:40:38;26.90;33.20
15705;DHT22;7952;48.396;12.806;2023-06-14T11:43:03;26.80;33.20
15705;DHT22;7952;48.396;12.806;2023-06-14T11:45:30;26.50;33.10
15705;DHT22;7952;48.396;12.806;2023-06-14T11:47:57;26.20;33.20
15705;DHT22;7952;48.396;12.806;2023-06-14T11:50:24;26.00;33.50
15705;DHT22;7952;48.396;12.806;2023-06-14T11:52:58;25.70;33.60
15705;DHT22;7952;48.396;12.806;2023-06-14T11:55:25;25.60;33.80
15705;DHT22;7952;48.396;12.806;2023-06-14T11:57:53;25.50;34.10
15705;DHT22;7952;48.396;12.806;2023-06-14T12:00:19;25.60;34.30
15705;DHT22;7952;48.396;12.806;2023-06-14T12:02:54;25.70;34.30
15705;DHT22;7952;48.396;12.806;2023-06-14T12:05:23;25.90;34.20
15705;DHT22;7952;48.396;12.806;2023-06-14T12:07:50;26.10;34.10
15705;DHT22;7952;48.396;12.806;2023-06-14T12:10:19;26.40;34.10
15705;DHT22;7952;48.396;12.806;2023-06-14T12:12:45;26.60;33.90
15705;DHT22;7952;48.396;12.806;2023-06-14T12:15:11;26.80;33.80
15705;DHT22;7952;48.396;12.806;2023-06-14T12:17:38;27.00;33.60
15705;DHT22;7952;48.396;12.806;2023-06-14T12:20:14;27.20;33.50
15705;DHT22;7952;48.396;12.806;2023-06-14T12:22:51;27.20;33.90
15705;DHT22;7952;48.396;12.806;2023-06-14T12:25:28;27.10;33.20
15705;DHT22;7952;48.396;12.806;2023-06-14T12:27:54;27.00;33.20
15705;DHT22;7952;48.396;12.806;2023-06-14T12:30:21;26.90;33.30
15705;DHT22;7952;48.396;12.806;2023-06-14T12:32:47;26.70;33.30
15705;DHT22;7952;48.396;12.806;2023-06-14T12:35:14;26.70;33.50
15705;DHT22;7952;48.396;12.806;2023-06-14T12:37:40;26.60;33.80
15705;DHT22;7952;48.396;12.806;2023-06-14T12:40:06;26.70;33.70
15705;DHT22;7952;48.396;12.806;2023-06-14T12:42:33;26.80;33.70
15705;DHT22;7952;48.396;12.806;2023-06-14T12:44:59;27.00;33.70
15705;DHT22;7952;48.396;12.806;2023-06-14T12:47:25;27.00;33.60
15705;DHT22;7952;48.396;12.806;2023-06-14T12:49:51;27.10;33.60
15705;DHT22;7952;48.396;12.806;2023-06-14T12:52:17;27.30;33.70
15705;DHT22;7952;48.396;12.806;2023-06-14T12:54:42;27.40;33.60
15705;DHT22;7952;48.396;12.806;2023-06-14T12:57:08;27.60;33.50
15705;DHT22;7952;48.396;12.806;2023-06-14T12:59:35;27.80;33.40
15705;DHT22;7952;48.396;12.806;2023-06-14T13:02:13;28.00;33.20
15705;DHT22;7952;48.396;12.806;2023-06-14T13:04:39;28.00;32.90
15705;DHT22;7952;48.396;12.806;2023-06-14T13:07:05;28.00;32.90
15705;DHT22;7952;48.396;12.806;2023-06-14T13:09:31;27.90;32.70
15705;DHT22;7952;48.396;12.806;2023-06-14T13:11:56;27.90;32.80
15705;DHT22;7952;48.396;12.806;2023-06-14T13:14:22;27.70;32.80
15705;DHT22;7952;48.396;12.806;2023-06-14T13:16:48;27.60;32.80
15705;DHT22;7952;48.396;12.806;2023-06-14T13:19:13;27.50;32.90
15705;DHT22;7952;48.396;12.806;2023-06-14T13:21:39;27.30;33.10
15705;DHT22;7952;48.396;12.806;2023-06-14T13:24:05;27.30;33.30
15705;DHT22;7952;48.396;12.806;2023-06-14T13:26:32;27.30;33.40
15705;DHT22;7952;48.396;12.806;2023-06-14T13:28:58;27.30;33.20
15705;DHT22;7952;48.396;12.806;2023-06-14T13:31:23;27.20;33.00
15705;DHT22;7952;48.396;12.806;2023-06-14T13:33:49;27.00;33.10
15705;DHT22;7952;48.396;12.806;2023-06-14T13:36:15;26.70;33.00
15705;DHT22;7952;48.396;12.806;2023-06-14T13:38:40;26.40;33.10
15705;DHT22;7952;48.396;12.806;2023-06-14T13:41:06;26.20;33.20
15705;DHT22;7952;48.396;12.806;2023-06-14T13:43:32;25.90;33.30
15705;DHT22;7952;48.396;12.806;2023-06-14T13:45:57;25.60;33.40
15705;DHT22;7952;48.396;12.806;2023-06-14T13:48:23;25.50;33.70
15705;DHT22;7952;48.396;12.806;2023-06-14T13:50:49;25.30;33.80
15705;DHT22;7952;48.396;12.806;2023-06-14T13:53:15;25.20;34.00
15705;DHT22;7952;48.396;12.806;2023-06-14T13:55:41;25.10;34.10
15705;DHT22;7952;48.396;12.806;2023-06-14T13:58:06;25.00;34.20
15705;DHT22;7952;48.396;12.806;2023-06-14T14:00:35;24.90;34.20
15705;DHT22;7952;48.396;12.806;2023-06-14T14:03:06;24.90;34.40
15705;DHT22;7952;48.396;12.806;2023-06-14T14:05:34;24.80;34.30
15705;DHT22;7952;48.396;12.806;2023-06-14T14:08:00;24.80;34.30
15705;DHT22;7952;48.396;12.806;2023-06-14T14:10:26;24.80;34.30
15705;DHT22;7952;48.396;12.806;2023-06-14T14:12:52;24.80;34.40
15705;DHT22;7952;48.396;12.806;2023-06-14T14:15:18;24.80;34.40
15705;DHT22;7952;48.396;12.806;2023-06-14T14:17:44;24.90;34.60
15705;DHT22;7952;48.396;12.806;2023-06-14T14:20:10;25.00;34.50
15705;DHT22;7952;48.396;12.806;2023-06-14T14:22:43;25.10;34.40
15705;DHT22;7952;48.396;12.806;2023-06-14T14:25:09;25.20;34.30
15705;DHT22;7952;48.396;12.806;2023-06-14T14:27:36;25.30;34.30
15705;DHT22;7952;48.396;12.806;2023-06-14T14:30:03;25.40;34.30
15705;DHT22;7952;48.396;12.806;2023-06-14T14:32:29;25.50;34.20
15705;DHT22;7952;48.396;12.806;2023-06-14T14:34:55;25.60;34.30
15705;DHT22;7952;48.396;12.806;2023-06-14T14:37:20;25.70;34.20
15705;DHT22;7952;48.396;12.806;2023-06-14T14:39:46;25.70;34.10
15705;DHT22;7952;48.396;12.806;2023-06-14T14:42:12;25.70;34.00
15705;DHT22;7952;48.396;12.806;2023-06-14T14:44:39;25.60;33.90
15705;DHT22;7952;48.396;12.806;2023-06-14T14:47:07;25.60;34.10
15705;DHT22;7952;48.396;12.806;2023-06-14T14:49:33;25.50;34.20
15705;DHT22;7952;48.396;12.806;2023-06-14T14:51:59;25.40;34.20
15705;DHT22;7952;48.396;12.806;2023-06-14T14:54:25;25.40;34.30
15705;DHT22;7952;48.396;12.806;2023-06-14T14:56:51;25.40;34.40
15705;DHT22;7952;48.396;12.806;2023-06-14T14:59:17;25.30;34.40
15705;DHT22;7952;48.396;12.806;2023-06-14T15:01:44;25.30;34.40
15705;DHT22;7952;48.396;12.806;2023-06-14T15:04:11;25.30;34.40
15705;DHT22;7952;48.396;12.806;2023-06-14T15:06:37;25.30;34.50
15705;DHT22;7952;48.396;12.806;2023-06-14T15:09:05;25.20;34.40
15705;DHT22;7952;48.396;12.806;2023-06-14T15:11:31;25.10;34.40
15705;DHT22;7952;48.396;12.806;2023-06-14T15:13:57;25.10;34.50
15705;DHT22;7952;48.396;12.806;2023-06-14T15:16:23;25.00;34.60
15705;DHT22;7952;48.396;12.806;2023-06-14T15:18:49;25.00;34.70
15705;DHT22;7952;48.396;12.806;2023-06-14T15:21:15;25.00;34.70
15705;DHT22;7952;48.396;12.806;2023-06-14T15:23:40;25.00;34.70
15705;DHT22;7952;48.396;12.806;2023-06-14T15:26:06;25.00;34.70
15705;DHT22;7952;48.396;12.806;2023-06-14T15:28:32;25.00;34.60
15705;DHT22;7952;48.396;12.806;2023-06-14T15:30:59;25.00;34.60
15705;DHT22;7952;48.396;12.806;2023-06-14T15:33:24;25.00;34.70
15705;DHT22;7952;48.396;12.806;2023-06-14T15:35:50;25.00;34.60
15705;DHT22;7952;48.396;12.806;2023-06-14T15:38:16;25.00;34.60